sensor_id;sensor_type;location;lat;lon;timestamp;P1;durP1;ratioP1;P2;durP2;ratioP2
77573;SDS011;66710;48.868;9.080;2023-03-29T00:01:56;4.22;;;1.98;;
77573;SDS011;66710;48.868;9.080;2023-03-29T00:04:21;3.53;;;1.98;;
77573;SDS011;66710;48.868;9.080;2023-03-29T00:06:47;3.45;;;1.90;;
77573;SDS011;66710;48.868;9.080;2023-03-29T00:09:13;3.55;;;1.70;;
77573;SDS011;66710;48.868;9.080;2023-03-29T00:11:39;4.60;;;2.00;;
77573;SDS011;66710;48.868;9.080;2023-03-29T00:14:04;6.15;;;2.03;;
77573;SDS011;66710;48.868;9.080;2023-03-29T00:16:30;4.95;;;1.98;;
77573;SDS011;66710;48.868;9.080;2023-03-29T00:18:55;4.03;;;2.00;;
77573;SDS011;66710;48.868;9.080;2023-03-29T00:21:21;3.22;;;1.98;;
77573;SDS011;66710;48.868;9.080;2023-03-29T00:23:46;4.55;;;2.47;;
77573;SDS011;66710;48.868;9.080;2023-03-29T00:26:11;3.28;;;1.80;;
77573;SDS011;66710;48.868;9.080;2023-03-29T00:28:36;2.95;;;1.73;;
77573;SDS011;66710;48.868;9.080;2023-03-29T00:31:03;3.65;;;1.58;;
77573;SDS011;66710;48.868;9.080;2023-03-29T00:33:30;3.72;;;1.98;;
77573;SDS011;66710;48.868;9.080;2023-03-29T00:35:55;3.97;;;1.80;;
77573;SDS011;66710;48.868;9.080;2023-03-29T00:38:20;5.88;;;1.95;;
77573;SDS011;66710;48.868;9.080;2023-03-29T00:40:46;3.45;;;1.88;;
77573;SDS011;66710;48.868;9.080;2023-03-29T00:43:11;4.22;;;1.70;;
77573;SDS011;66710;48.868;9.080;2023-03-29T00:45:38;3.90;;;1.80;;
77573;SDS011;66710;48.868;9.080;2023-03-29T00:48:04;3.17;;;1.80;;
77573;SDS011;66710;48.868;9.080;2023-03-29T00:50:34;4.32;;;1.75;;
77573;SDS011;66710;48.868;9.080;2023-03-29T00:53:11;3.25;;;1.70;;
77573;SDS011;66710;48.868;9.080;2023-03-29T00:55:41;2.70;;;1.75;;
77573;SDS011;66710;48.868;9.080;2023-03-29T00:58:13;2.80;;;1.50;;
77573;SDS011;66710;48.868;9.080;2023-03-29T01:00:44;3.20;;;1.85;;
77573;SDS011;66710;48.868;9.080;2023-03-29T01:03:16;3.42;;;1.98;;
77573;SDS011;66710;48.868;9.080;2023-03-29T01:05:49;4.00;;;1.75;;
77573;SDS011;66710;48.868;9.080;2023-03-29T01:08:25;3.30;;;1.60;;
77573;SDS011;66710;48.868;9.080;2023-03-29T01:10:56;6.07;;;1.80;;
77573;SDS011;66710;48.868;9.080;2023-03-29T01:13:29;3.50;;;1.63;;
77573;SDS011;66710;48.868;9.080;2023-03-29T01:15:59;3.75;;;1.80;;
77573;SDS011;66710;48.868;9.080;2023-03-29T01:18:26;5.63;;;1.98;;
77573;SDS011;66710;48.868;9.080;2023-03-29T01:23:34;4.47;;;2.22;;
77573;SDS011;66710;48.868;9.080;2023-03-29T01:29:20;3.15;;;1.52;;
77573;SDS011;66710;48.868;9.080;2023-03-29T01:31:57;2.92;;;1.63;;
77573;SDS011;66710;48.868;9.080;2023-03-29T01:34:39;4.88;;;2.38;;
77573;SDS011;66710;48.868;9.080;2023-03-29T01:40:09;4.57;;;2.33;;
77573;SDS011;66710;48.868;9.080;2023-03-29T01:42:39;2.47;;;1.60;;
77573;SDS011;66710;48.868;9.080;2023-03-29T01:45:16;3.72;;;2.20;;
77573;SDS011;66710;48.868;9.080;2023-03-29T01:53:33;4.88;;;2.00;;
77573;SDS011;66710;48.868;9.080;2023-03-29T01:56:06;2.47;;;1.45;;
77573;SDS011;66710;48.868;9.080;2023-03-29T01:58:37;3.55;;;1.60;;
77573;SDS011;66710;48.868;9.080;2023-03-29T02:01:07;3.50;;;1.85;;
77573;SDS011;66710;48.868;9.080;2023-03-29T02:03:34;3.80;;;1.88;;
77573;SDS011;66710;48.868;9.080;2023-03-29T02:06:06;3.80;;;2.10;;
77573;SDS011;66710;48.868;9.080;2023-03-29T02:08:34;3.45;;;1.90;;
77573;SDS011;66710;48.868;9.080;2023-03-29T02:11:02;3.92;;;1.35;;
77573;SDS011;66710;48.868;9.080;2023-03-29T02:13:28;4.43;;;2.00;;
77573;SDS011;66710;48.868;9.080;2023-03-29T02:15:53;2.50;;;1.60;;
77573;SDS011;66710;48.868;9.080;2023-03-29T02:18:19;4.47;;;1.95;;
77573;SDS011;66710;48.868;9.080;2023-03-29T02:20:45;3.85;;;1.70;;
77573;SDS011;66710;48.868;9.080;2023-03-29T02:25:49;4.40;;;1.92;;
77573;SDS011;66710;48.868;9.080;2023-03-29T02:28:17;3.55;;;2.17;;
77573;SDS011;66710;48.868;9.080;2023-03-29T02:33:33;4.22;;;1.90;;
77573;SDS011;66710;48.868;9.080;2023-03-29T02:36:11;4.30;;;1.90;;
77573;SDS011;66710;48.868;9.080;2023-03-29T02:38:43;3.42;;;1.80;;
77573;SDS011;66710;48.868;9.080;2023-03-29T02:41:09;5.13;;;2.00;;
77573;SDS011;66710;48.868;9.080;2023-03-29T02:43:35;3.42;;;1.90;;
77573;SDS011;66710;48.868;9.080;2023-03-29T02:46:02;2.67;;;1.40;;
77573;SDS011;66710;48.868;9.080;2023-03-29T02:48:29;3.50;;;2.03;;
77573;SDS011;66710;48.868;9.080;2023-03-29T02:50:59;4.85;;;2.08;;
77573;SDS011;66710;48.868;9.080;2023-03-29T02:53:28;3.97;;;1.98;;
77573;SDS011;66710;48.868;9.080;2023-03-29T02:55:58;4.45;;;2.05;;
77573;SDS011;66710;48.868;9.080;2023-03-29T02:58:26;3.45;;;1.80;;
77573;SDS011;66710;48.868;9.080;2023-03-29T03:00:52;2.78;;;1.60;;
77573;SDS011;66710;48.868;9.080;2023-03-29T03:03:19;4.05;;;1.85;;
77573;SDS011;66710;48.868;9.080;2023-03-29T03:05:45;5.22;;;1.73;;
77573;SDS011;66710;48.868;9.080;2023-03-29T03:08:11;4.07;;;1.77;;
77573;SDS011;66710;48.868;9.080;2023-03-29T03:10:37;4.80;;;1.88;;
77573;SDS011;66710;48.868;9.080;2023-03-29T03:13:03;5.30;;;1.98;;
77573;SDS011;66710;48.868;9.080;2023-03-29T03:15:29;3.63;;;2.00;;
77573;SDS011;66710;48.868;9.080;2023-03-29T03:17:55;3.22;;;1.98;;
77573;SDS011;66710;48.868;9.080;2023-03-29T03:20:20;4.68;;;2.42;;
77573;SDS011;66710;48.868;9.080;2023-03-29T03:22:46;5.25;;;2.42;;
77573;SDS011;66710;48.868;9.080;2023-03-29T03:25:13;3.90;;;2.17;;
77573;SDS011;66710;48.868;9.080;2023-03-29T03:27:40;4.30;;;2.40;;
77573;SDS011;66710;48.868;9.080;2023-03-29T03:30:06;5.68;;;2.58;;
77573;SDS011;66710;48.868;9.080;2023-03-29T03:32:33;5.63;;;2.60;;
77573;SDS011;66710;48.868;9.080;2023-03-29T03:34:59;5.32;;;2.42;;
77573;SDS011;66710;48.868;9.080;2023-03-29T03:37:24;4.28;;;2.40;;
77573;SDS011;66710;48.868;9.080;2023-03-29T03:39:50;3.50;;;2.00;;
77573;SDS011;66710;48.868;9.080;2023-03-29T03:42:15;4.60;;;2.00;;
77573;SDS011;66710;48.868;9.080;2023-03-29T03:44:41;4.90;;;2.15;;
77573;SDS011;66710;48.868;9.080;2023-03-29T03:47:08;5.00;;;2.20;;
77573;SDS011;66710;48.868;9.080;2023-03-29T03:49:33;3.38;;;1.85;;
77573;SDS011;66710;48.868;9.080;2023-03-29T03:51:59;3.85;;;2.00;;
77573;SDS011;66710;48.868;9.080;2023-03-29T03:54:24;4.93;;;2.10;;
77573;SDS011;66710;48.868;9.080;2023-03-29T03:56:50;3.50;;;2.10;;
77573;SDS011;66710;48.868;9.080;2023-03-29T03:59:15;3.92;;;2.13;;
77573;SDS011;66710;48.868;9.080;2023-03-29T04:01:41;4.03;;;2.13;;
77573;SDS011;66710;48.868;9.080;2023-03-29T04:04:08;4.20;;;1.92;;
77573;SDS011;66710;48.868;9.080;2023-03-29T04:06:34;3.47;;;1.95;;
77573;SDS011;66710;48.868;9.080;2023-03-29T04:09:00;5.55;;;2.40;;
77573;SDS011;66710;48.868;9.080;2023-03-29T04:11:26;5.25;;;2.20;;
77573;SDS011;66710;48.868;9.080;2023-03-29T04:13:51;5.45;;;2.00;;
77573;SDS011;66710;48.868;9.080;2023-03-29T04:16:16;4.30;;;2.05;;
77573;SDS011;66710;48.868;9.080;2023-03-29T04:18:42;3.42;;;1.83;;
77573;SDS011;66710;48.868;9.080;2023-03-29T04:21:07;3.30;;;1.88;;
77573;SDS011;66710;48.868;9.080;2023-03-29T04:23:33;3.63;;;1.90;;
77573;SDS011;66710;48.868;9.080;2023-03-29T04:26:00;4.22;;;2.00;;
77573;SDS011;66710;48.868;9.080;2023-03-29T04:28:25;5.40;;;2.15;;
77573;SDS011;66710;48.868;9.080;2023-03-29T04:30:50;4.03;;;2.03;;
77573;SDS011;66710;48.868;9.080;2023-03-29T04:33:16;4.28;;;2.20;;
77573;SDS011;66710;48.868;9.080;2023-03-29T04:35:41;4.30;;;2.25;;
77573;SDS011;66710;48.868;9.080;2023-03-29T04:38:07;4.75;;;2.15;;
77573;SDS011;66710;48.868;9.080;2023-03-29T04:40:34;3.75;;;2.13;;
77573;SDS011;66710;48.868;9.080;2023-03-29T04:42:59;4.47;;;2.20;;
77573;SDS011;66710;48.868;9.080;2023-03-29T04:45:24;4.18;;;2.33;;
77573;SDS011;66710;48.868;9.080;2023-03-29T04:47:50;3.67;;;2.20;;
77573;SDS011;66710;48.868;9.080;2023-03-29T04:50:17;4.40;;;2.05;;
77573;SDS011;66710;48.868;9.080;2023-03-29T04:52:43;3.78;;;2.05;;
77573;SDS011;66710;48.868;9.080;2023-03-29T04:55:09;4.22;;;2.10;;
77573;SDS011;66710;48.868;9.080;2023-03-29T04:57:35;3.35;;;2.05;;
77573;SDS011;66710;48.868;9.080;2023-03-29T05:00:01;4.00;;;1.88;;
77573;SDS011;66710;48.868;9.080;2023-03-29T05:02:32;4.37;;;2.00;;
77573;SDS011;66710;48.868;9.080;2023-03-29T05:04:57;6.20;;;1.73;;
77573;SDS011;66710;48.868;9.080;2023-03-29T05:07:23;3.25;;;1.60;;
77573;SDS011;66710;48.868;9.080;2023-03-29T05:09:48;4.22;;;2.13;;
77573;SDS011;66710;48.868;9.080;2023-03-29T05:12:13;3.95;;;1.67;;
77573;SDS011;66710;48.868;9.080;2023-03-29T05:14:39;3.13;;;1.80;;
77573;SDS011;66710;48.868;9.080;2023-03-29T05:17:04;3.55;;;1.98;;
77573;SDS011;66710;48.868;9.080;2023-03-29T05:19:30;5.30;;;1.80;;
77573;SDS011;66710;48.868;9.080;2023-03-29T05:21:55;3.63;;;1.90;;
77573;SDS011;66710;48.868;9.080;2023-03-29T05:24:21;4.57;;;1.90;;
77573;SDS011;66710;48.868;9.080;2023-03-29T05:26:47;4.03;;;1.95;;
77573;SDS011;66710;48.868;9.080;2023-03-29T05:29:15;3.97;;;2.15;;
77573;SDS011;66710;48.868;9.080;2023-03-29T05:31:41;6.97;;;2.00;;
77573;SDS011;66710;48.868;9.080;2023-03-29T05:34:06;3.92;;;1.80;;
77573;SDS011;66710;48.868;9.080;2023-03-29T05:36:32;6.93;;;2.00;;
77573;SDS011;66710;48.868;9.080;2023-03-29T05:38:57;3.90;;;2.13;;
77573;SDS011;66710;48.868;9.080;2023-03-29T05:41:23;4.28;;;2.00;;
77573;SDS011;66710;48.868;9.080;2023-03-29T05:43:49;3.47;;;1.90;;
77573;SDS011;66710;48.868;9.080;2023-03-29T05:46:15;3.85;;;1.90;;
77573;SDS011;66710;48.868;9.080;2023-03-29T05:48:40;5.57;;;1.95;;
77573;SDS011;66710;48.868;9.080;2023-03-29T05:51:06;3.85;;;1.95;;
77573;SDS011;66710;48.868;9.080;2023-03-29T05:53:32;5.57;;;2.20;;
77573;SDS011;66710;48.868;9.080;2023-03-29T05:55:57;4.53;;;2.75;;
77573;SDS011;66710;48.868;9.080;2023-03-29T05:58:23;6.40;;;3.65;;
77573;SDS011;66710;48.868;9.080;2023-03-29T06:00:50;5.93;;;3.30;;
77573;SDS011;66710;48.868;9.080;2023-03-29T06:03:16;6.55;;;3.30;;
77573;SDS011;66710;48.868;9.080;2023-03-29T06:05:44;7.25;;;3.40;;
77573;SDS011;66710;48.868;9.080;2023-03-29T06:08:12;7.03;;;4.60;;
77573;SDS011;66710;48.868;9.080;2023-03-29T06:10:38;9.23;;;3.97;;
77573;SDS011;66710;48.868;9.080;2023-03-29T06:13:03;9.63;;;3.50;;
77573;SDS011;66710;48.868;9.080;2023-03-29T06:15:30;7.03;;;2.95;;
77573;SDS011;66710;48.868;9.080;2023-03-29T06:17:55;5.70;;;2.50;;
77573;SDS011;66710;48.868;9.080;2023-03-29T06:20:21;4.47;;;2.42;;
77573;SDS011;66710;48.868;9.080;2023-03-29T06:22:46;5.63;;;2.72;;
77573;SDS011;66710;48.868;9.080;2023-03-29T06:25:12;12.70;;;6.28;;
77573;SDS011;66710;48.868;9.080;2023-03-29T06:27:39;7.78;;;4.25;;
77573;SDS011;66710;48.868;9.080;2023-03-29T06:30:05;3.75;;;2.17;;
77573;SDS011;66710;48.868;9.080;2023-03-29T06:32:32;5.75;;;2.00;;
77573;SDS011;66710;48.868;9.080;2023-03-29T06:34:58;4.10;;;1.90;;
77573;SDS011;66710;48.868;9.080;2023-03-29T06:37:23;5.43;;;2.50;;
77573;SDS011;66710;48.868;9.080;2023-03-29T06:39:49;4.68;;;2.22;;
77573;SDS011;66710;48.868;9.080;2023-03-29T06:42:17;5.72;;;2.10;;
77573;SDS011;66710;48.868;9.080;2023-03-29T06:44:43;5.32;;;2.10;;
77573;SDS011;66710;48.868;9.080;2023-03-29T06:47:09;5.75;;;2.78;;
77573;SDS011;66710;48.868;9.080;2023-03-29T06:49:34;5.20;;;2.75;;
77573;SDS011;66710;48.868;9.080;2023-03-29T06:52:00;7.70;;;3.17;;
77573;SDS011;66710;48.868;9.080;2023-03-29T06:54:25;6.28;;;2.65;;
77573;SDS011;66710;48.868;9.080;2023-03-29T06:56:50;4.45;;;2.63;;
77573;SDS011;66710;48.868;9.080;2023-03-29T06:59:16;5.50;;;2.65;;
77573;SDS011;66710;48.868;9.080;2023-03-29T07:01:42;5.40;;;2.95;;
77573;SDS011;66710;48.868;9.080;2023-03-29T07:04:08;7.50;;;2.90;;
77573;SDS011;66710;48.868;9.080;2023-03-29T07:06:34;5.47;;;2.40;;
77573;SDS011;66710;48.868;9.080;2023-03-29T07:09:02;5.95;;;2.80;;
77573;SDS011;66710;48.868;9.080;2023-03-29T07:11:30;5.72;;;2.63;;
77573;SDS011;66710;48.868;9.080;2023-03-29T07:13:57;4.88;;;2.30;;
77573;SDS011;66710;48.868;9.080;2023-03-29T07:16:23;7.82;;;2.28;;
77573;SDS011;66710;48.868;9.080;2023-03-29T07:18:48;7.60;;;2.42;;
77573;SDS011;66710;48.868;9.080;2023-03-29T07:21:14;5.15;;;2.13;;
77573;SDS011;66710;48.868;9.080;2023-03-29T07:23:39;5.15;;;2.05;;
77573;SDS011;66710;48.868;9.080;2023-03-29T07:26:05;6.57;;;2.50;;
77573;SDS011;66710;48.868;9.080;2023-03-29T07:28:32;5.32;;;2.95;;
77573;SDS011;66710;48.868;9.080;2023-03-29T07:31:02;5.65;;;2.65;;
77573;SDS011;66710;48.868;9.080;2023-03-29T07:33:29;6.55;;;2.67;;
77573;SDS011;66710;48.868;9.080;2023-03-29T07:35:54;7.43;;;2.40;;
77573;SDS011;66710;48.868;9.080;2023-03-29T07:38:20;5.57;;;2.25;;
77573;SDS011;66710;48.868;9.080;2023-03-29T07:40:45;8.43;;;2.80;;
77573;SDS011;66710;48.868;9.080;2023-03-29T07:43:10;6.55;;;2.45;;
77573;SDS011;66710;48.868;9.080;2023-03-29T07:45:36;9.50;;;2.47;;
77573;SDS011;66710;48.868;9.080;2023-03-29T07:48:01;3.65;;;2.00;;
77573;SDS011;66710;48.868;9.080;2023-03-29T07:50:27;6.35;;;2.33;;
77573;SDS011;66710;48.868;9.080;2023-03-29T07:52:53;4.88;;;2.20;;
77573;SDS011;66710;48.868;9.080;2023-03-29T07:55:18;4.75;;;2.20;;
77573;SDS011;66710;48.868;9.080;2023-03-29T07:57:44;7.43;;;2.00;;
77573;SDS011;66710;48.868;9.080;2023-03-29T08:00:10;3.70;;;1.92;;
77573;SDS011;66710;48.868;9.080;2023-03-29T08:02:43;4.43;;;2.20;;
77573;SDS011;66710;48.868;9.080;2023-03-29T08:05:16;5.72;;;1.90;;
77573;SDS011;66710;48.868;9.080;2023-03-29T08:07:44;7.65;;;2.20;;
77573;SDS011;66710;48.868;9.080;2023-03-29T08:10:12;4.10;;;1.80;;
77573;SDS011;66710;48.868;9.080;2023-03-29T08:12:39;5.65;;;2.10;;
77573;SDS011;66710;48.868;9.080;2023-03-29T08:15:06;4.43;;;1.73;;
77573;SDS011;66710;48.868;9.080;2023-03-29T08:17:31;5.15;;;2.20;;
77573;SDS011;66710;48.868;9.080;2023-03-29T08:19:57;3.95;;;2.00;;
77573;SDS011;66710;48.868;9.080;2023-03-29T08:22:22;5.07;;;2.00;;
77573;SDS011;66710;48.868;9.080;2023-03-29T08:24:48;4.05;;;1.90;;
77573;SDS011;66710;48.868;9.080;2023-03-29T08:27:14;6.18;;;2.00;;
77573;SDS011;66710;48.868;9.080;2023-03-29T08:29:39;3.97;;;2.00;;
77573;SDS011;66710;48.868;9.080;2023-03-29T08:32:05;4.53;;;2.10;;
77573;SDS011;66710;48.868;9.080;2023-03-29T08:34:30;4.32;;;2.25;;
77573;SDS011;66710;48.868;9.080;2023-03-29T08:36:56;5.68;;;2.05;;
77573;SDS011;66710;48.868;9.080;2023-03-29T08:39:23;5.15;;;2.15;;
77573;SDS011;66710;48.868;9.080;2023-03-29T08:47:18;4.38;;;2.28;;
77573;SDS011;66710;48.868;9.080;2023-03-29T08:49:50;3.53;;;2.08;;
77573;SDS011;66710;48.868;9.080;2023-03-29T08:52:24;5.28;;;2.10;;
77573;SDS011;66710;48.868;9.080;2023-03-29T08:55:22;5.75;;;2.63;;
77573;SDS011;66710;48.868;9.080;2023-03-29T08:57:52;3.75;;;2.00;;
77573;SDS011;66710;48.868;9.080;2023-03-29T09:00:21;6.20;;;2.40;;
77573;SDS011;66710;48.868;9.080;2023-03-29T09:02:57;6.78;;;2.20;;
77573;SDS011;66710;48.868;9.080;2023-03-29T09:05:28;4.72;;;2.20;;
77573;SDS011;66710;48.868;9.080;2023-03-29T09:07:58;3.45;;;1.95;;
77573;SDS011;66710;48.868;9.080;2023-03-29T09:10:27;4.55;;;2.20;;
77573;SDS011;66710;48.868;9.080;2023-03-29T09:13:05;4.93;;;1.92;;
77573;SDS011;66710;48.868;9.080;2023-03-29T09:15:49;4.95;;;2.20;;
77573;SDS011;66710;48.868;9.080;2023-03-29T09:18:37;3.35;;;1.90;;
77573;SDS011;66710;48.868;9.080;2023-03-29T09:21:36;4.18;;;2.00;;
77573;SDS011;66710;48.868;9.080;2023-03-29T09:24:24;3.50;;;1.90;;
77573;SDS011;66710;48.868;9.080;2023-03-29T09:26:59;4.40;;;2.10;;
77573;SDS011;66710;48.868;9.080;2023-03-29T09:32:48;4.32;;;1.92;;
77573;SDS011;66710;48.868;9.080;2023-03-29T09:35:27;4.97;;;1.90;;
77573;SDS011;66710;48.868;9.080;2023-03-29T09:37:58;3.95;;;1.90;;
77573;SDS011;66710;48.868;9.080;2023-03-29T09:40:36;5.22;;;2.10;;
77573;SDS011;66710;48.868;9.080;2023-03-29T09:43:03;4.68;;;2.00;;
77573;SDS011;66710;48.868;9.080;2023-03-29T09:45:39;4.35;;;1.83;;
77573;SDS011;66710;48.868;9.080;2023-03-29T09:48:16;6.57;;;1.90;;
77573;SDS011;66710;48.868;9.080;2023-03-29T09:50:43;5.97;;;1.73;;
77573;SDS011;66710;48.868;9.080;2023-03-29T09:53:12;3.25;;;1.88;;
77573;SDS011;66710;48.868;9.080;2023-03-29T09:55:38;4.00;;;1.90;;
77573;SDS011;66710;48.868;9.080;2023-03-29T10:00:51;3.10;;;1.63;;
77573;SDS011;66710;48.868;9.080;2023-03-29T10:03:18;3.10;;;1.80;;
77573;SDS011;66710;48.868;9.080;2023-03-29T10:05:45;6.35;;;2.17;;
77573;SDS011;66710;48.868;9.080;2023-03-29T10:08:17;4.68;;;1.98;;
77573;SDS011;66710;48.868;9.080;2023-03-29T10:10:46;4.57;;;2.00;;
77573;SDS011;66710;48.868;9.080;2023-03-29T10:13:25;2.92;;;1.80;;
77573;SDS011;66710;48.868;9.080;2023-03-29T10:15:57;5.35;;;1.83;;
77573;SDS011;66710;48.868;9.080;2023-03-29T10:18:25;3.30;;;1.67;;
77573;SDS011;66710;48.868;9.080;2023-03-29T10:20:55;5.82;;;2.00;;
77573;SDS011;66710;48.868;9.080;2023-03-29T10:23:28;3.47;;;1.90;;
77573;SDS011;66710;48.868;9.080;2023-03-29T10:25:55;3.15;;;1.73;;
77573;SDS011;66710;48.868;9.080;2023-03-29T10:28:21;3.88;;;1.92;;
77573;SDS011;66710;48.868;9.080;2023-03-29T10:30:51;4.07;;;1.80;;
77573;SDS011;66710;48.868;9.080;2023-03-29T10:33:19;3.50;;;1.92;;
77573;SDS011;66710;48.868;9.080;2023-03-29T10:35:47;4.18;;;1.70;;
77573;SDS011;66710;48.868;9.080;2023-03-29T10:38:15;2.42;;;1.60;;
77573;SDS011;66710;48.868;9.080;2023-03-29T10:40:43;2.92;;;1.73;;
77573;SDS011;66710;48.868;9.080;2023-03-29T10:43:27;4.15;;;2.17;;
77573;SDS011;66710;48.868;9.080;2023-03-29T10:46:06;4.50;;;1.73;;
77573;SDS011;66710;48.868;9.080;2023-03-29T10:48:37;6.13;;;1.75;;
77573;SDS011;66710;48.868;9.080;2023-03-29T10:51:04;4.50;;;1.80;;
77573;SDS011;66710;48.868;9.080;2023-03-29T10:53:30;3.63;;;1.80;;
77573;SDS011;66710;48.868;9.080;2023-03-29T10:56:05;3.75;;;1.63;;
77573;SDS011;66710;48.868;9.080;2023-03-29T11:01:04;4.07;;;1.98;;
77573;SDS011;66710;48.868;9.080;2023-03-29T11:03:35;3.95;;;1.98;;
77573;SDS011;66710;48.868;9.080;2023-03-29T11:06:36;3.88;;;1.88;;
77573;SDS011;66710;48.868;9.080;2023-03-29T11:09:13;4.28;;;1.90;;
77573;SDS011;66710;48.868;9.080;2023-03-29T11:11:57;3.10;;;1.85;;
77573;SDS011;66710;48.868;9.080;2023-03-29T11:20:18;3.72;;;1.92;;
77573;SDS011;66710;48.868;9.080;2023-03-29T11:26:07;4.07;;;1.95;;
77573;SDS011;66710;48.868;9.080;2023-03-29T11:31:49;3.47;;;1.90;;
77573;SDS011;66710;48.868;9.080;2023-03-29T11:42:20;3.70;;;1.70;;
77573;SDS011;66710;48.868;9.080;2023-03-29T11:47:20;3.28;;;1.80;;
77573;SDS011;66710;48.868;9.080;2023-03-29T11:50:08;4.20;;;2.13;;
77573;SDS011;66710;48.868;9.080;2023-03-29T11:55:34;3.78;;;1.52;;
77573;SDS011;66710;48.868;9.080;2023-03-29T11:58:05;4.22;;;1.90;;
77573;SDS011;66710;48.868;9.080;2023-03-29T12:00:47;10.00;;;2.00;;
77573;SDS011;66710;48.868;9.080;2023-03-29T12:03:36;3.72;;;1.75;;
77573;SDS011;66710;48.868;9.080;2023-03-29T12:06:10;3.28;;;1.70;;
77573;SDS011;66710;48.868;9.080;2023-03-29T12:08:49;2.90;;;1.75;;
77573;SDS011;66710;48.868;9.080;2023-03-29T12:11:22;4.07;;;2.05;;
77573;SDS011;66710;48.868;9.080;2023-03-29T12:14:13;3.92;;;2.00;;
77573;SDS011;66710;48.868;9.080;2023-03-29T12:16:46;4.20;;;2.20;;
77573;SDS011;66710;48.868;9.080;2023-03-29T12:19:23;5.43;;;2.15;;
77573;SDS011;66710;48.868;9.080;2023-03-29T12:22:08;3.60;;;2.15;;
77573;SDS011;66710;48.868;9.080;2023-03-29T12:24:33;3.63;;;2.13;;
77573;SDS011;66710;48.868;9.080;2023-03-29T12:27:19;4.50;;;1.90;;
77573;SDS011;66710;48.868;9.080;2023-03-29T12:32:46;8.00;;;2.50;;
77573;SDS011;66710;48.868;9.080;2023-03-29T12:40:45;4.78;;;2.10;;
77573;SDS011;66710;48.868;9.080;2023-03-29T12:43:26;4.63;;;2.22;;
77573;SDS011;66710;48.868;9.080;2023-03-29T12:45:57;6.85;;;2.30;;
77573;SDS011;66710;48.868;9.080;2023-03-29T12:48:29;3.80;;;2.45;;
77573;SDS011;66710;48.868;9.080;2023-03-29T12:50:59;3.97;;;2.10;;
77573;SDS011;66710;48.868;9.080;2023-03-29T12:53:48;4.13;;;2.00;;
77573;SDS011;66710;48.868;9.080;2023-03-29T12:56:14;4.38;;;1.80;;
77573;SDS011;66710;48.868;9.080;2023-03-29T13:01:33;1.85;;;1.10;;
77573;SDS011;66710;48.868;9.080;2023-03-29T13:06:29;2.53;;;1.40;;
77573;SDS011;66710;48.868;9.080;2023-03-29T13:09:00;1.65;;;1.00;;
77573;SDS011;66710;48.868;9.080;2023-03-29T13:11:32;3.50;;;1.05;;
77573;SDS011;66710;48.868;9.080;2023-03-29T13:14:11;1.40;;;1.15;;
77573;SDS011;66710;48.868;9.080;2023-03-29T13:16:40;2.83;;;1.40;;
77573;SDS011;66710;48.868;9.080;2023-03-29T13:19:25;2.40;;;1.05;;
77573;SDS011;66710;48.868;9.080;2023-03-29T13:25:06;3.17;;;1.00;;
77573;SDS011;66710;48.868;9.080;2023-03-29T13:27:51;2.88;;;1.25;;
77573;SDS011;66710;48.868;9.080;2023-03-29T13:36:13;3.35;;;1.40;;
77573;SDS011;66710;48.868;9.080;2023-03-29T13:38:51;2.47;;;1.40;;
77573;SDS011;66710;48.868;9.080;2023-03-29T13:41:24;3.55;;;1.40;;
77573;SDS011;66710;48.868;9.080;2023-03-29T13:43:56;2.30;;;0.95;;
77573;SDS011;66710;48.868;9.080;2023-03-29T13:48:49;2.08;;;1.20;;
77573;SDS011;66710;48.868;9.080;2023-03-29T13:51:20;1.58;;;0.98;;
77573;SDS011;66710;48.868;9.080;2023-03-29T13:53:52;3.20;;;1.25;;
77573;SDS011;66710;48.868;9.080;2023-03-29T13:56:23;2.20;;;1.35;;
77573;SDS011;66710;48.868;9.080;2023-03-29T13:58:53;2.10;;;0.90;;
77573;SDS011;66710;48.868;9.080;2023-03-29T14:01:26;2.90;;;1.00;;
77573;SDS011;66710;48.868;9.080;2023-03-29T14:03:55;2.47;;;1.17;;
77573;SDS011;66710;48.868;9.080;2023-03-29T14:06:25;2.25;;;1.02;;
77573;SDS011;66710;48.868;9.080;2023-03-29T14:08:55;3.10;;;1.50;;
77573;SDS011;66710;48.868;9.080;2023-03-29T14:11:22;2.35;;;0.90;;
77573;SDS011;66710;48.868;9.080;2023-03-29T14:13:56;2.30;;;1.55;;
77573;SDS011;66710;48.868;9.080;2023-03-29T14:16:27;2.05;;;1.25;;
77573;SDS011;66710;48.868;9.080;2023-03-29T14:18:58;3.53;;;1.48;;
77573;SDS011;66710;48.868;9.080;2023-03-29T14:21:27;3.38;;;1.40;;
77573;SDS011;66710;48.868;9.080;2023-03-29T14:23:54;3.45;;;1.50;;
77573;SDS011;66710;48.868;9.080;2023-03-29T14:26:27;4.05;;;1.20;;
77573;SDS011;66710;48.868;9.080;2023-03-29T14:28:55;3.20;;;1.30;;
77573;SDS011;66710;48.868;9.080;2023-03-29T14:31:23;3.03;;;1.67;;
77573;SDS011;66710;48.868;9.080;2023-03-29T14:33:54;4.53;;;1.70;;
77573;SDS011;66710;48.868;9.080;2023-03-29T14:36:21;2.33;;;1.50;;
77573;SDS011;66710;48.868;9.080;2023-03-29T14:38:48;3.70;;;1.50;;
77573;SDS011;66710;48.868;9.080;2023-03-29T14:41:17;2.78;;;1.40;;
77573;SDS011;66710;48.868;9.080;2023-03-29T14:43:43;4.82;;;1.42;;
77573;SDS011;66710;48.868;9.080;2023-03-29T14:46:10;4.03;;;1.48;;
77573;SDS011;66710;48.868;9.080;2023-03-29T14:48:38;3.28;;;1.55;;
77573;SDS011;66710;48.868;9.080;2023-03-29T14:51:04;4.72;;;1.38;;
77573;SDS011;66710;48.868;9.080;2023-03-29T14:53:30;2.95;;;1.48;;
77573;SDS011;66710;48.868;9.080;2023-03-29T14:55:58;2.25;;;1.30;;
77573;SDS011;66710;48.868;9.080;2023-03-29T14:58:28;2.90;;;1.40;;
77573;SDS011;66710;48.868;9.080;2023-03-29T15:03:27;3.03;;;1.23;;
77573;SDS011;66710;48.868;9.080;2023-03-29T15:05:56;2.67;;;1.30;;
77573;SDS011;66710;48.868;9.080;2023-03-29T15:08:30;2.20;;;1.58;;
77573;SDS011;66710;48.868;9.080;2023-03-29T15:10:58;3.55;;;1.40;;
77573;SDS011;66710;48.868;9.080;2023-03-29T15:13:24;3.90;;;1.60;;
77573;SDS011;66710;48.868;9.080;2023-03-29T15:15:51;3.25;;;1.50;;
77573;SDS011;66710;48.868;9.080;2023-03-29T15:18:23;5.43;;;1.50;;
77573;SDS011;66710;48.868;9.080;2023-03-29T15:20:55;3.92;;;1.38;;
77573;SDS011;66710;48.868;9.080;2023-03-29T15:23:22;3.42;;;1.48;;
77573;SDS011;66710;48.868;9.080;2023-03-29T15:25:55;2.83;;;1.35;;
77573;SDS011;66710;48.868;9.080;2023-03-29T15:28:23;2.90;;;1.30;;
77573;SDS011;66710;48.868;9.080;2023-03-29T15:30:55;2.80;;;1.40;;
77573;SDS011;66710;48.868;9.080;2023-03-29T15:33:23;3.63;;;1.40;;
77573;SDS011;66710;48.868;9.080;2023-03-29T15:35:49;5.55;;;1.67;;
77573;SDS011;66710;48.868;9.080;2023-03-29T15:38:17;3.10;;;1.55;;
77573;SDS011;66710;48.868;9.080;2023-03-29T15:40:44;3.50;;;1.60;;
77573;SDS011;66710;48.868;9.080;2023-03-29T15:43:10;3.00;;;1.30;;
77573;SDS011;66710;48.868;9.080;2023-03-29T15:45:36;3.33;;;1.30;;
77573;SDS011;66710;48.868;9.080;2023-03-29T15:48:01;4.05;;;1.60;;
77573;SDS011;66710;48.868;9.080;2023-03-29T15:50:33;2.47;;;1.40;;
77573;SDS011;66710;48.868;9.080;2023-03-29T15:52:58;4.40;;;1.60;;
77573;SDS011;66710;48.868;9.080;2023-03-29T15:55:24;2.40;;;1.23;;
77573;SDS011;66710;48.868;9.080;2023-03-29T15:57:53;2.70;;;1.55;;
77573;SDS011;66710;48.868;9.080;2023-03-29T16:00:21;5.18;;;1.90;;
77573;SDS011;66710;48.868;9.080;2023-03-29T16:02:47;6.75;;;1.77;;
77573;SDS011;66710;48.868;9.080;2023-03-29T16:05:12;4.07;;;1.50;;
77573;SDS011;66710;48.868;9.080;2023-03-29T16:07:38;3.58;;;1.50;;
77573;SDS011;66710;48.868;9.080;2023-03-29T16:10:03;4.85;;;1.70;;
77573;SDS011;66710;48.868;9.080;2023-03-29T16:12:29;4.63;;;1.48;;
77573;SDS011;66710;48.868;9.080;2023-03-29T16:14:55;2.45;;;1.45;;
77573;SDS011;66710;48.868;9.080;2023-03-29T16:17:20;3.28;;;1.50;;
77573;SDS011;66710;48.868;9.080;2023-03-29T16:19:45;2.92;;;1.33;;
77573;SDS011;66710;48.868;9.080;2023-03-29T16:22:11;3.22;;;1.60;;
77573;SDS011;66710;48.868;9.080;2023-03-29T16:24:36;3.97;;;1.77;;
77573;SDS011;66710;48.868;9.080;2023-03-29T16:27:02;2.05;;;1.40;;